Time;durP1;ratioP1;P1;durP2;ratioP2;P2;SDS_P1;SDS_P2;PMS_P1;PMS_P2;Temp;Humidity;BMP_temperature;BMP_pressure;BME280_temperature;BME280_humidity;BME280_pressure;Samples;Min_cycle;Max_cycle;Signal;HPM_P1;HPM_P2
2021/05/07 00:01:14;;;;;;;79.55;73.18;;;20.80;99.90;;;;;;4993880;28;20022;-57
2021/05/07 00:03:41;;;;;;;75.47;69.35;;;20.80;99.90;;;;;;4993510;28;20050;-58
2021/05/07 00:06:10;;;;;;;72.15;65.80;;;20.60;99.90;;;;;;4993541;28;20479;-54
2021/05/07 00:08:39;;;;;;;71.88;65.90;;;20.70;99.90;;;;;;4976485;28;20027;-55
2021/05/07 00:11:15;;;;;;;73.50;67.60;;;20.80;99.90;;;;;;4993725;28;20033;-57
2021/05/07 00:13:44;;;;;;;73.35;67.55;;;21.00;99.90;;;;;;4993525;28;20105;-57
2021/05/07 00:16:15;;;;;;;76.38;70.22;;;21.30;99.90;;;;;;4993585;28;20491;-56
2021/05/07 00:18:42;;;;;;;70.72;65.13;;;21.50;99.90;;;;;;4993625;28;20050;-56
2021/05/07 00:21:10;;;;;;;74.45;68.65;;;21.50;99.90;;;;;;4993501;28;20061;-56
2021/05/07 00:23:38;;;;;;;76.43;70.32;;;21.60;99.90;;;;;;4993544;28;20026;-56
2021/05/07 00:26:06;;;;;;;79.45;73.55;;;21.80;99.90;;;;;;4993439;28;20026;-59
2021/05/07 00:28:35;;;;;;;77.90;71.50;;;21.80;99.90;;;;;;4993494;28;20447;-58
2021/05/07 00:31:02;;;;;;;73.32;66.82;;;22.00;99.90;;;;;;4993365;28;20027;-56
2021/05/07 00:33:30;;;;;;;72.00;66.40;;;22.10;99.90;;;;;;4993436;28;20018;-55
2021/05/07 00:35:57;;;;;;;72.50;66.80;;;22.30;99.90;;;;;;4993396;28;20041;-57
2021/05/07 00:38:24;;;;;;;73.10;66.90;;;22.40;99.90;;;;;;4993425;28;20030;-59
2021/05/07 00:40:52;;;;;;;71.85;65.40;;;22.70;99.90;;;;;;4993667;28;20077;-52
2021/05/07 00:43:19;;;;;;;67.13;61.28;;;23.00;99.90;;;;;;4993464;28;20049;-55
2021/05/07 00:45:47;;;;;;;65.47;60.17;;;23.10;99.90;;;;;;4993096;28;20030;-55
2021/05/07 00:48:18;;;;;;;67.88;61.88;;;22.90;99.90;;;;;;4975783;28;20026;-56
2021/05/07 00:50:47;;;;;;;66.72;60.95;;;23.00;99.90;;;;;;4993599;28;20027;-54
2021/05/07 00:53:20;;;;;;;68.53;62.80;;;22.90;99.90;;;;;;4993232;28;20019;-55
2021/05/07 00:55:47;;;;;;;70.63;65.05;;;22.80;99.90;;;;;;4994078;28;20035;-51
2021/05/07 00:58:15;;;;;;;68.10;62.45;;;23.00;99.90;;;;;;4997347;28;20034;-57
2021/05/07 01:00:43;;;;;;;63.92;58.83;;;23.20;99.90;;;;;;4996985;28;20034;-51
2021/05/07 01:03:10;;;;;;;65.82;60.38;;;23.20;99.90;;;;;;4996724;28;20030;-51
2021/05/07 01:05:40;;;;;;;63.50;58.30;;;23.00;99.90;;;;;;4997029;28;20062;-54
2021/05/07 01:08:08;;;;;;;57.70;53.10;;;23.00;99.90;;;;;;4997819;28;20019;-50
2021/05/07 01:10:35;;;;;;;58.80;53.85;;;22.90;99.90;;;;;;4996837;28;20026;-50
2021/05/07 01:13:03;;;;;;;59.97;55.03;;;23.00;99.90;;;;;;4996687;28;20493;-55
2021/05/07 01:15:30;;;;;;;60.55;54.95;;;22.90;99.90;;;;;;4996959;28;20033;-55
2021/05/07 01:17:59;;;;;;;58.13;53.75;;;22.90;99.90;;;;;;4996779;28;20019;-57
2021/05/07 01:20:32;;;;;;;57.92;52.47;;;22.60;99.90;;;;;;4996770;28;20029;-59
2021/05/07 01:23:01;;;;;;;56.22;51.63;;;22.30;99.90;;;;;;4996707;28;20023;-52
2021/05/07 01:25:36;;;;;;;54.92;50.28;;;22.30;99.90;;;;;;4996704;28;20027;-56
2021/05/07 01:28:06;;;;;;;55.65;49.95;;;22.60;99.90;;;;;;4996725;28;20019;-54
2021/05/07 01:30:36;;;;;;;52.70;48.30;;;22.90;99.90;;;;;;4996779;28;20022;-58
2021/05/07 01:33:03;;;;;;;;;;;22.70;99.90;;;;;;4997112;28;20097;-58
2021/05/07 01:35:33;;;;;;;59.65;54.63;;;22.20;99.90;;;;;;4996551;28;19906;-58
2021/05/07 01:38:04;;;;;;;64.25;58.35;;;21.70;99.90;;;;;;4979065;28;20041;-59
2021/05/07 01:40:32;;;;;;;;;;;21.60;99.90;;;;;;4996994;28;20030;-61
2021/05/07 01:43:00;;;;;;;62.83;56.78;;;21.80;99.90;;;;;;4996656;28;19910;-58
2021/05/07 01:45:29;;;;;;;63.70;57.75;;;21.80;99.90;;;;;;4996291;28;20026;-60
2021/05/07 01:48:03;;;;;;;59.22;54.42;;;22.10;99.90;;;;;;4996209;28;20049;-58
2021/05/07 01:50:32;;;;;;;59.20;53.63;;;22.20;99.90;;;;;;4996144;28;20018;-56
2021/05/07 01:53:00;;;;;;;57.90;52.90;;;21.90;99.90;;;;;;4996239;28;20101;-57
2021/05/07 01:55:33;;;;;;;58.20;52.75;;;22.20;99.90;;;;;;4996261;28;20077;-56
2021/05/07 01:58:02;;;;;;;56.55;51.35;;;22.30;99.90;;;;;;4996117;28;20072;-54
2021/05/07 02:00:31;;;;;;;55.30;50.25;;;22.30;99.90;;;;;;4996092;28;20513;-56
2021/05/07 02:03:01;;;;;;;54.72;50.22;;;22.30;99.90;;;;;;4995852;28;20034;-60
2021/05/07 02:05:39;;;;;;;54.55;49.47;;;22.40;99.90;;;;;;4996027;28;20073;-58
2021/05/07 02:08:08;;;;;;;56.53;51.55;;;22.40;99.90;;;;;;4995557;28;20022;-60
2021/05/07 02:10:36;;;;;;;56.13;51.33;;;22.70;99.90;;;;;;4995909;28;20034;-58
2021/05/07 02:13:08;;;;;;;57.00;52.20;;;22.90;99.90;;;;;;4995830;28;20105;-58
2021/05/07 02:15:36;;;;;;;55.25;50.40;;;22.80;99.90;;;;;;4995835;28;20368;-55
2021/05/07 02:18:06;;;;;;;53.03;48.20;;;22.40;99.90;;;;;;4995703;28;20034;-56
2021/05/07 02:20:34;;;;;;;56.63;52.08;;;22.30;99.90;;;;;;4995862;28;20022;-58
2021/05/07 02:23:02;;;;;;;57.78;52.97;;;22.40;99.90;;;;;;4995731;28;20022;-56
2021/05/07 02:25:30;;;;;;;58.42;53.90;;;22.30;99.90;;;;;;4995542;28;20023;-60
2021/05/07 02:27:58;;;;;;;56.22;51.97;;;22.30;99.90;;;;;;4995703;28;20030;-57
2021/05/07 02:30:28;;;;;;;50.88;46.67;;;22.50;99.90;;;;;;4995533;28;20054;-55
2021/05/07 02:32:56;;;;;;;52.35;48.22;;;22.20;99.90;;;;;;4995684;28;20022;-56
2021/05/07 02:35:24;;;;;;;51.75;47.67;;;21.90;99.90;;;;;;4995758;28;20027;-56
2021/05/07 02:37:52;;;;;;;55.63;51.22;;;21.70;99.90;;;;;;4995508;28;20026;-60
2021/05/07 02:40:19;;;;;;;57.10;52.72;;;21.50;99.90;;;;;;4995651;28;20026;-57
2021/05/07 02:42:47;;;;;;;55.95;51.67;;;21.30;99.90;;;;;;4995555;28;20030;-60
2021/05/07 02:45:15;;;;;;;55.58;51.22;;;21.20;99.90;;;;;;4995167;28;20030;-56
2021/05/07 02:47:42;;;;;;;53.63;49.30;;;21.40;99.90;;;;;;4977751;28;20491;-60
2021/05/07 02:50:11;;;;;;;53.85;49.65;;;21.70;99.90;;;;;;4995246;28;20018;-59
2021/05/07 02:52:40;;;;;;;49.05;45.20;;;22.40;99.90;;;;;;4995162;28;20019;-58
2021/05/07 02:55:09;;;;;;;42.05;38.83;;;22.60;99.90;;;;;;4995329;28;20082;-60
2021/05/07 02:57:37;;;;;;;40.42;37.17;;;22.20;99.90;;;;;;4995112;28;20082;-58
2021/05/07 03:00:07;;;;;;;39.45;36.28;;;22.30;99.90;;;;;;4995207;28;20054;-60
2021/05/07 03:02:35;;;;;;;40.13;36.33;;;22.50;99.90;;;;;;4994802;28;20450;-57
2021/05/07 03:05:03;;;;;;;38.55;35.30;;;22.70;99.90;;;;;;4977983;28;20054;-61
2021/05/07 03:07:31;;;;;;;37.40;34.00;;;22.90;99.90;;;;;;4975500;28;20027;-61
2021/05/07 03:09:58;;;;;;;37.33;33.88;;;23.00;99.90;;;;;;4975426;28;20023;-61
2021/05/07 03:12:25;;;;;;;40.78;36.83;;;23.00;99.90;;;;;;4958023;28;20525;-58
2021/05/07 03:14:53;;;;;;;39.53;35.88;;;23.10;99.90;;;;;;4975464;28;20022;-56
2021/05/07 03:17:20;;;;;;;39.03;35.70;;;23.10;99.90;;;;;;4975228;28;20105;-57
2021/05/07 03:19:51;;;;;;;36.90;33.67;;;22.90;99.90;;;;;;4974215;28;20033;-55
2021/05/07 03:22:18;;;;;;;34.78;32.10;;;22.90;99.90;;;;;;4975272;28;20180;-58
2021/05/07 03:24:45;;;;;;;35.30;31.88;;;22.90;99.90;;;;;;4975172;28;20279;-56
2021/05/07 03:27:13;;;;;;;37.55;34.20;;;22.70;99.90;;;;;;4974946;28;20027;-57
2021/05/07 03:29:40;;;;;;;35.35;31.67;;;22.80;99.90;;;;;;4974994;28;20034;-62
2021/05/07 03:32:07;;;;;;;34.05;30.88;;;23.20;99.90;;;;;;4974981;28;20025;-59
2021/05/07 03:34:35;;;;;;;34.38;31.17;;;23.00;99.90;;;;;;4974831;28;20063;-59
2021/05/07 03:37:02;;;;;;;35.63;32.00;;;22.80;99.90;;;;;;4974932;28;20050;-57
2021/05/07 03:39:30;;;;;;;35.58;31.73;;;22.80;99.90;;;;;;4974890;28;20023;-56
2021/05/07 03:42:05;;;;;;;39.00;35.15;;;22.40;99.90;;;;;;5090361;27;20410;-56
2021/05/07 03:44:32;;;;;;;37.63;33.78;;;22.30;99.90;;;;;;5090288;28;20488;-57
2021/05/07 03:47:01;;;;;;;37.47;33.55;;;22.10;99.90;;;;;;5090218;28;20020;-57
2021/05/07 03:49:30;;;;;;;37.80;34.40;;;22.00;99.90;;;;;;5090074;28;20428;-57
2021/05/07 03:52:00;;;;;;;39.08;35.22;;;22.10;99.90;;;;;;5090231;28;20373;-58
2021/05/07 03:54:28;;;;;;;39.92;35.65;;;22.30;99.90;;;;;;5090359;28;20025;-56
2021/05/07 03:56:55;;;;;;;39.80;36.05;;;22.30;99.90;;;;;;5090021;28;20066;-58
2021/05/07 03:59:23;;;;;;;39.35;35.53;;;22.40;99.90;;;;;;5090048;28;20062;-58
2021/05/07 04:01:50;;;;;;;39.00;35.10;;;22.60;99.90;;;;;;5089900;28;20029;-58
2021/05/07 04:04:18;;;;;;;38.45;34.50;;;22.60;99.90;;;;;;5089793;28;20082;-55
2021/05/07 04:06:46;;;;;;;40.72;36.78;;;22.40;99.90;;;;;;5089798;28;20020;-56
2021/05/07 04:09:17;;;;;;;38.58;34.80;;;23.00;99.90;;;;;;5089825;28;20073;-57
2021/05/07 04:14:15;;;;;;;39.00;33.83;;;23.50;99.90;;;;;;5089841;28;20024;-60
2021/05/07 04:16:43;;;;;;;33.22;30.17;;;23.70;99.90;;;;;;5088401;28;20032;-59
2021/05/07 04:19:10;;;;;;;31.90;28.48;;;23.30;99.90;;;;;;5089720;28;20091;-56
2021/05/07 04:21:38;;;;;;;34.17;30.77;;;22.90;99.90;;;;;;5089647;28;20034;-58
2021/05/07 04:24:09;;;;;;;37.42;33.53;;;22.80;99.90;;;;;;5089673;28;20070;-60
2021/05/07 04:26:36;;;;;;;39.25;35.45;;;22.40;99.90;;;;;;5088243;28;20031;-59
2021/05/07 04:29:04;;;;;;;36.17;32.55;;;22.30;99.90;;;;;;5089482;28;20056;-59
2021/05/07 04:31:31;;;;;;;38.05;34.13;;;22.20;99.90;;;;;;5089446;28;20082;-59
2021/05/07 04:33:59;;;;;;;36.67;32.97;;;22.10;99.90;;;;;;5089402;28;20055;-57
2021/05/07 04:36:26;;;;;;;38.17;34.45;;;22.10;99.90;;;;;;5089378;28;20510;-60
2021/05/07 04:38:56;;;;;;;39.17;35.22;;;22.30;99.90;;;;;;5089386;28;20046;-58
2021/05/07 04:41:24;;;;;;;41.83;37.33;;;22.20;99.90;;;;;;5089030;28;20048;-60
2021/05/07 04:43:52;;;;;;;42.72;37.58;;;22.00;99.90;;;;;;5089251;28;20035;-58
2021/05/07 04:46:19;;;;;;;41.83;37.53;;;22.10;99.90;;;;;;5089145;28;20022;-58
2021/05/07 04:48:46;;;;;;;40.50;36.30;;;22.40;99.90;;;;;;5089129;28;20021;-59
2021/05/07 04:51:14;;;;;;;44.83;34.97;;;22.40;99.90;;;;;;5088379;28;20024;-58
2021/05/07 04:53:41;;;;;;;40.88;37.00;;;22.30;99.90;;;;;;5075136;28;20396;-59
2021/05/07 04:56:09;;;;;;;37.63;34.22;;;22.40;99.90;;;;;;5075580;28;20021;-57
2021/05/07 04:58:36;;;;;;;36.08;32.75;;;22.40;99.90;;;;;;5075468;28;20036;-57
2021/05/07 05:01:03;;;;;;;36.35;32.53;;;22.60;99.90;;;;;;5075311;28;20024;-57
2021/05/07 05:03:31;;;;;;;36.85;33.33;;;22.60;99.90;;;;;;5075354;28;20024;-58
2021/05/07 05:05:58;;;;;;;33.97;30.48;;;22.50;99.90;;;;;;5075359;28;20016;-58
2021/05/07 05:08:26;;;;;;;34.72;31.20;;;22.30;99.90;;;;;;5075345;28;20112;-60
2021/05/07 05:10:57;;;;;;;38.17;32.33;;;22.40;99.90;;;;;;5075153;28;20060;-61
2021/05/07 05:13:26;;;;;;;33.80;30.38;;;22.30;99.90;;;;;;5075127;28;20029;-58
2021/05/07 05:15:57;;;;;;;33.85;30.60;;;22.20;99.90;;;;;;5057390;28;20031;-58
2021/05/07 05:18:33;;;;;;;33.75;30.20;;;22.20;99.90;;;;;;5075130;28;20388;-56
2021/05/07 05:21:03;;;;;;;35.38;31.83;;;22.20;99.90;;;;;;5074971;28;20031;-57
2021/05/07 05:23:31;;;;;;;35.40;31.60;;;22.10;99.90;;;;;;5075155;28;20123;-59
2021/05/07 05:25:59;;;;;;;36.92;33.03;;;22.20;99.90;;;;;;5074927;28;20098;-59
2021/05/07 05:28:28;;;;;;;37.60;33.55;;;22.30;99.90;;;;;;5074913;28;20020;-55
2021/05/07 05:30:56;;;;;;;35.65;32.45;;;22.30;99.90;;;;;;5074849;28;20392;-58
2021/05/07 05:33:23;;;;;;;38.30;34.22;;;22.30;99.90;;;;;;5074874;28;20028;-58
2021/05/07 05:35:51;;;;;;;37.78;33.88;;;22.50;99.90;;;;;;5074673;28;20052;-60
2021/05/07 05:38:21;;;;;;;34.83;31.60;;;22.60;99.90;;;;;;5074702;28;20476;-61
2021/05/07 05:40:49;;;;;;;35.88;32.50;;;22.50;99.90;;;;;;5074334;28;20039;-60
2021/05/07 05:43:16;;;;;;;35.90;32.67;;;22.30;99.90;;;;;;5074586;28;20560;-56
2021/05/07 05:45:43;;;;;;;37.50;34.00;;;22.10;99.90;;;;;;5074603;28;20024;-58
2021/05/07 05:48:15;;;;;;;38.08;34.67;;;21.90;99.90;;;;;;5074461;28;20021;-58
2021/05/07 05:50:45;;;;;;;38.30;34.25;;;21.90;99.90;;;;;;5074497;28;20029;-56
2021/05/07 05:53:13;;;;;;;38.65;34.83;;;21.70;99.90;;;;;;5074443;28;20051;-57
2021/05/07 05:55:41;;;;;;;39.05;35.15;;;21.60;99.90;;;;;;5074426;28;20035;-54
2021/05/07 05:58:09;;;;;;;37.33;33.70;;;21.70;99.90;;;;;;5074386;28;20024;-60
2021/05/07 06:00:37;;;;;;;37.65;33.83;;;21.50;99.90;;;;;;5074043;28;20557;-57
2021/05/07 06:03:05;;;;;;;40.28;36.28;;;21.40;99.90;;;;;;5073750;28;20381;-60
2021/05/07 06:05:32;;;;;;;39.78;35.53;;;21.40;99.90;;;;;;5073693;28;20062;-56
2021/05/07 06:08:00;;;;;;;38.40;34.72;;;21.50;99.90;;;;;;5074386;28;20051;-57
2021/05/07 06:10:27;;;;;;;39.67;35.95;;;21.30;99.90;;;;;;5074076;28;20491;-59
2021/05/07 06:12:55;;;;;;;41.22;37.42;;;21.20;99.90;;;;;;5073925;28;20035;-59
2021/05/07 06:15:23;;;;;;;40.42;36.50;;;21.30;99.90;;;;;;5074054;28;20062;-59
2021/05/07 06:17:50;;;;;;;42.10;37.13;;;21.10;99.90;;;;;;5073922;28;20027;-57
2021/05/07 06:20:19;;;;;;;43.90;39.35;;;21.10;99.90;;;;;;5073877;28;20028;-57
2021/05/07 06:22:48;;;;;;;43.05;38.47;;;21.20;99.90;;;;;;5074144;28;20376;-58
2021/05/07 06:25:24;;;;;;;43.85;39.40;;;21.20;99.90;;;;;;5072507;28;20020;-56
2021/05/07 06:27:52;;;;;;;44.63;40.38;;;21.20;99.90;;;;;;5073798;28;20025;-57
2021/05/07 06:30:19;;;;;;;43.42;39.08;;;21.20;99.90;;;;;;5074045;28;20031;-57
2021/05/07 06:32:47;;;;;;;44.67;40.05;;;21.00;99.90;;;;;;5073581;28;20476;-56
2021/05/07 06:35:14;;;;;;;41.85;37.67;;;20.90;99.90;;;;;;5073948;28;20028;-54
2021/05/07 06:37:42;;;;;;;44.70;37.72;;;20.90;99.90;;;;;;5073593;28;20017;-57
2021/05/07 06:40:11;;;;;;;44.25;39.80;;;20.90;99.90;;;;;;5073402;28;20040;-51
2021/05/07 06:42:38;;;;;;;42.30;38.08;;;20.90;99.90;;;;;;5073544;28;20021;-56
2021/05/07 06:45:11;;;;;;;42.58;38.13;;;20.80;99.90;;;;;;5073450;28;20507;-54
2021/05/07 06:47:39;;;;;;;41.63;37.78;;;20.80;99.90;;;;;;5073293;28;20469;-55
2021/05/07 06:50:08;;;;;;;43.40;39.38;;;20.60;99.90;;;;;;5073242;28;20029;-56
2021/05/07 06:52:36;;;;;;;41.28;37.17;;;20.60;99.90;;;;;;5073240;28;20075;-51
2021/05/07 06:55:03;;;;;;;41.30;37.33;;;20.50;99.90;;;;;;5073313;28;20031;-56
2021/05/07 06:57:31;;;;;;;42.85;38.58;;;20.50;99.90;;;;;;5073270;28;20029;-56
2021/05/07 06:59:58;;;;;;;42.03;37.88;;;20.50;99.90;;;;;;5071877;28;20472;-54
2021/05/07 07:02:26;;;;;;;42.10;38.03;;;20.50;99.90;;;;;;5072864;28;20032;-51
2021/05/07 07:04:53;;;;;;;42.17;38.08;;;20.50;99.90;;;;;;5073060;28;20021;-56
2021/05/07 07:07:21;;;;;;;41.85;37.75;;;20.50;99.90;;;;;;5073109;28;20028;-57
2021/05/07 07:09:48;;;;;;;43.00;38.78;;;20.40;99.90;;;;;;5073000;28;20105;-56
2021/05/07 07:12:15;;;;;;;41.30;37.38;;;20.40;99.90;;;;;;5072959;28;20032;-56
2021/05/07 07:14:43;;;;;;;41.65;37.58;;;20.30;99.90;;;;;;5072852;28;20032;-58
2021/05/07 07:17:10;;;;;;;40.08;36.30;;;20.30;99.90;;;;;;5073012;28;20052;-56
2021/05/07 07:19:38;;;;;;;40.47;36.38;;;20.30;99.90;;;;;;5072956;28;20096;-57
2021/05/07 07:22:09;;;;;;;40.97;37.05;;;20.30;99.90;;;;;;5072753;28;20078;-54
2021/05/07 07:24:36;;;;;;;40.58;36.83;;;20.30;99.90;;;;;;5071543;28;20020;-56
2021/05/07 07:27:04;;;;;;;41.55;37.55;;;20.30;99.90;;;;;;5072765;28;20024;-54
2021/05/07 07:29:31;;;;;;;39.80;36.03;;;20.20;99.90;;;;;;5072818;28;20028;-55
2021/05/07 07:31:59;;;;;;;40.47;36.33;;;20.20;99.90;;;;;;5072665;28;20411;-53
2021/05/07 07:34:26;;;;;;;44.00;39.67;;;20.20;99.90;;;;;;5072635;28;20025;-54
2021/05/07 07:36:54;;;;;;;39.95;36.00;;;20.20;99.90;;;;;;5072551;28;20493;-51
2021/05/07 07:39:21;;;;;;;40.85;36.83;;;20.10;99.90;;;;;;5072554;28;20031;-53
2021/05/07 07:41:51;;;;;;;38.78;34.67;;;20.10;99.90;;;;;;5072362;28;20062;-50
2021/05/07 07:44:19;;;;;;;39.65;35.63;;;20.10;99.90;;;;;;5072553;28;20025;-53
2021/05/07 07:46:47;;;;;;;43.20;38.85;;;20.10;99.90;;;;;;5072604;28;20075;-53
2021/05/07 07:49:14;;;;;;;42.67;38.25;;;20.10;99.90;;;;;;5071341;28;20017;-54
2021/05/07 07:51:58;;;;;;;43.10;39.00;;;20.00;99.90;;;;;;5072919;28;20484;-56
2021/05/07 08:00:55;;;;;;;48.95;44.45;;;20.00;99.90;;;;;;5050482;28;20036;-56
2021/05/07 08:03:23;;;;;;;49.45;44.85;;;20.00;99.90;;;;;;5050351;28;20028;-56
2021/05/07 08:05:50;;;;;;;46.35;42.17;;;19.90;99.90;;;;;;5050382;28;20028;-59
2021/05/07 08:08:18;;;;;;;44.45;40.72;;;19.90;99.90;;;;;;5070194;28;20115;-55
2021/05/07 08:10:46;;;;;;;46.78;42.45;;;19.80;99.90;;;;;;5072304;28;20024;-56
2021/05/07 08:13:13;;;;;;;46.42;42.30;;;19.90;99.90;;;;;;5072471;28;20048;-57
2021/05/07 08:15:40;;;;;;;46.95;42.42;;;19.80;99.90;;;;;;5072375;28;20021;-56
2021/05/07 08:18:08;;;;;;;45.88;41.42;;;19.80;99.90;;;;;;5072282;28;20369;-54
2021/05/07 08:20:35;;;;;;;49.25;45.10;;;19.80;99.90;;;;;;5070882;28;20028;-54
2021/05/07 08:23:02;;;;;;;49.97;45.08;;;19.80;99.90;;;;;;5072368;28;20020;-55
2021/05/07 08:25:30;;;;;;;46.13;41.90;;;19.70;99.90;;;;;;5072286;28;20103;-55
2021/05/07 08:27:57;;;;;;;45.03;40.95;;;19.70;99.90;;;;;;5074433;28;20016;-54
2021/05/07 08:30:24;;;;;;;46.85;42.67;;;19.60;99.90;;;;;;5076079;28;20473;-56
2021/05/07 08:32:52;;;;;;;46.83;42.45;;;19.70;99.90;;;;;;5075923;28;20370;-51
2021/05/07 08:35:19;;;;;;;47.85;43.47;;;19.60;99.90;;;;;;5075908;28;20020;-52
2021/05/07 08:37:47;;;;;;;47.83;43.67;;;19.50;99.90;;;;;;5075804;28;20100;-55
2021/05/07 08:40:16;;;;;;;46.92;42.70;;;19.40;99.90;;;;;;5075609;28;20040;-55
2021/05/07 08:42:44;;;;;;;45.00;40.72;;;19.30;99.90;;;;;;5075815;28;20021;-55
2021/05/07 08:45:12;;;;;;;46.03;41.75;;;19.30;99.90;;;;;;5075634;28;20043;-54
2021/05/07 08:47:40;;;;;;;48.90;44.50;;;19.20;99.90;;;;;;5075859;28;20032;-57
2021/05/07 08:50:09;;;;;;;46.67;42.78;;;19.10;99.90;;;;;;5074345;28;20077;-58
2021/05/07 08:52:37;;;;;;;47.58;42.70;;;19.00;99.90;;;;;;5075573;28;20516;-57
2021/05/07 08:55:06;;;;;;;48.65;44.15;;;19.00;99.90;;;;;;5076121;28;20058;-53
2021/05/07 08:57:33;;;;;;;47.88;43.53;;;19.00;99.90;;;;;;5075617;28;20017;-55
2021/05/07 09:00:01;;;;;;;44.47;40.20;;;18.90;99.90;;;;;;5075443;28;20028;-54
2021/05/07 09:02:30;;;;;;;54.78;49.63;;;18.90;99.90;;;;;;5075344;28;20043;-56
2021/05/07 09:04:58;;;;;;;45.90;41.67;;;18.80;99.90;;;;;;5075475;28;20495;-58
2021/05/07 09:07:30;;;;;;;48.00;43.60;;;18.70;99.90;;;;;;5075298;28;20397;-56
2021/05/07 09:10:06;;;;;;;48.63;44.42;;;18.70;99.90;;;;;;5075460;28;20020;-56
2021/05/07 09:12:37;;;;;;;48.13;43.92;;;18.70;99.90;;;;;;5074054;28;20017;-54
2021/05/07 09:15:07;;;;;;;49.85;45.33;;;18.70;99.90;;;;;;5075257;28;20147;-56
2021/05/07 09:17:37;;;;;;;48.53;44.30;;;18.60;99.90;;;;;;5073766;28;20027;-55
2021/05/07 09:20:06;;;;;;;48.28;43.58;;;18.60;99.90;;;;;;5074982;28;20111;-56
2021/05/07 09:22:34;;;;;;;48.92;44.17;;;18.60;99.90;;;;;;5075048;28;20088;-55
2021/05/07 09:25:07;;;;;;;51.33;46.80;;;18.60;99.90;;;;;;5074866;28;20025;-55
2021/05/07 09:27:35;;;;;;;48.58;43.97;;;18.60;99.90;;;;;;5075284;28;20488;-58
2021/05/07 09:30:03;;;;;;;47.50;43.08;;;18.60;99.90;;;;;;5073631;28;20031;-57
2021/05/07 09:32:35;;;;;;;48.00;43.35;;;18.60;99.90;;;;;;5073567;28;20023;-57
2021/05/07 09:35:10;;;;;;;49.10;44.53;;;18.60;99.90;;;;;;5074789;28;20037;-58
2021/05/07 09:37:39;;;;;;;45.53;41.13;;;18.60;99.90;;;;;;5074672;28;20074;-55
2021/05/07 09:40:18;;;;;;;47.08;42.75;;;18.70;99.90;;;;;;5074445;28;20468;-58
2021/05/07 09:42:47;;;;;;;48.60;44.33;;;18.60;99.90;;;;;;5073486;28;20037;-57
2021/05/07 09:45:22;;;;;;;51.58;47.03;;;18.50;99.90;;;;;;5074935;28;20013;-58
2021/05/07 09:47:51;;;;;;;53.35;48.70;;;18.50;99.90;;;;;;5074341;28;20082;-58
2021/05/07 09:50:40;;;;;;;53.67;48.75;;;18.50;99.90;;;;;;5074389;28;20476;-56
2021/05/07 09:53:15;;;;;;;53.60;49.40;;;18.50;99.90;;;;;;5074369;28;20048;-58
2021/05/07 09:55:43;;;;;;;54.60;49.95;;;18.40;99.90;;;;;;5074467;28;20024;-60
2021/05/07 09:58:11;;;;;;;56.67;51.63;;;18.40;99.90;;;;;;5074237;28;20549;-57
2021/05/07 10:00:38;;;;;;;52.10;47.42;;;18.40;99.90;;;;;;5074190;28;20052;-59
2021/05/07 10:03:06;;;;;;;53.78;49.58;;;18.30;99.90;;;;;;5073990;28;20024;-59
2021/05/07 10:05:36;;;;;;;54.22;49.10;;;18.30;99.90;;;;;;5074074;28;20020;-59
2021/05/07 10:08:04;;;;;;;52.00;47.67;;;18.30;99.90;;;;;;5072615;28;20048;-59
2021/05/07 10:10:36;;;;;;;53.30;48.58;;;18.30;99.90;;;;;;5073960;28;20074;-58
2021/05/07 10:13:08;;;;;;;50.20;45.47;;;18.30;99.90;;;;;;5073734;28;20073;-58
2021/05/07 10:15:38;;;;;;;51.05;46.35;;;18.30;99.90;;;;;;5071903;28;20665;-56
2021/05/07 10:18:07;;;;;;;51.38;46.55;;;18.20;99.90;;;;;;5073154;28;20020;-57
2021/05/07 10:20:41;;;;;;;51.17;46.55;;;18.10;99.90;;;;;;5072802;28;20032;-55
2021/05/07 10:23:19;;;;;;;52.08;47.35;;;18.10;99.90;;;;;;5072827;28;20430;-57
2021/05/07 10:25:58;;;;;;;50.33;45.40;;;18.00;99.90;;;;;;5072888;28;20052;-55
2021/05/07 10:28:26;;;;;;;50.10;46.10;;;18.00;99.90;;;;;;5072730;28;20020;-54
2021/05/07 10:31:08;;;;;;;53.50;49.05;;;17.90;99.90;;;;;;5073469;28;20035;-58
2021/05/07 10:33:36;;;;;;;51.60;47.35;;;18.00;99.90;;;;;;5073693;28;20028;-59
2021/05/07 10:36:04;;;;;;;54.22;49.50;;;17.90;99.90;;;;;;5072319;28;20430;-58
2021/05/07 10:38:32;;;;;;;53.50;49.20;;;17.80;99.90;;;;;;5073477;28;20029;-59
2021/05/07 10:41:08;;;;;;;61.28;56.58;;;17.80;99.90;;;;;;5073270;28;20048;-59
2021/05/07 10:43:46;;;;;;;55.50;50.95;;;17.70;99.90;;;;;;5073413;28;20027;-56
2021/05/07 10:46:24;;;;;;;56.47;51.92;;;17.80;99.90;;;;;;5073387;28;20492;-56
2021/05/07 10:48:53;;;;;;;57.00;52.17;;;17.70;99.90;;;;;;5073293;28;20052;-56
2021/05/07 10:51:22;;;;;;;64.88;59.72;;;17.70;99.90;;;;;;5072739;28;20028;-57
2021/05/07 10:53:50;;;;;;;57.42;52.72;;;17.60;99.90;;;;;;5073311;28;20055;-58
2021/05/07 10:56:23;;;;;;;59.83;54.88;;;17.60;99.90;;;;;;5073158;28;20020;-58
2021/05/07 10:58:52;;;;;;;59.03;54.30;;;17.60;99.90;;;;;;5073131;28;20489;-55
2021/05/07 11:01:24;;;;;;;63.15;57.88;;;17.60;99.90;;;;;;5073090;28;20039;-58
2021/05/07 11:04:03;;;;;;;63.10;57.90;;;17.60;99.90;;;;;;5073044;28;20019;-58
2021/05/07 11:06:47;;;;;;;60.35;55.15;;;17.60;99.90;;;;;;5072981;28;20036;-57
2021/05/07 11:09:27;;;;;;;61.08;55.80;;;17.50;99.90;;;;;;5073158;28;20021;-57
2021/05/07 11:11:57;;;;;;;63.42;58.10;;;17.60;99.90;;;;;;5071714;28;20024;-57
2021/05/07 11:14:26;;;;;;;60.20;55.42;;;17.60;99.90;;;;;;5073013;28;20103;-57
2021/05/07 11:16:54;;;;;;;62.70;57.58;;;17.50;99.90;;;;;;5072948;28;20032;-59
2021/05/07 11:19:35;;;;;;;64.35;59.03;;;17.40;99.90;;;;;;5072943;28;20021;-53
2021/05/07 11:22:08;;;;;;;64.53;59.20;;;17.40;99.90;;;;;;5072868;28;20016;-57
2021/05/07 11:24:47;;;;;;;67.50;61.85;;;17.40;99.90;;;;;;5072950;28;20395;-57
2021/05/07 11:27:23;;;;;;;62.33;57.13;;;17.40;99.90;;;;;;5071896;28;20055;-58
2021/05/07 11:29:52;;;;;;;63.35;58.45;;;17.40;99.90;;;;;;5072832;28;20131;-57
2021/05/07 11:32:21;;;;;;;61.80;56.67;;;17.30;99.90;;;;;;5072708;28;20035;-54
2021/05/07 11:34:56;;;;;;;62.40;57.13;;;17.30;99.90;;;;;;5072743;28;20144;-55
2021/05/07 11:37:26;;;;;;;61.42;56.33;;;17.30;99.90;;;;;;5072817;28;20164;-55
2021/05/07 11:40:09;;;;;;;64.10;58.88;;;17.30;99.90;;;;;;5072401;28;20086;-52
2021/05/07 11:42:38;;;;;;;64.43;58.67;;;17.30;99.90;;;;;;5072708;28;20362;-54
2021/05/07 11:45:09;;;;;;;61.67;56.42;;;17.30;99.90;;;;;;5071305;28;20029;-57
2021/05/07 11:47:38;;;;;;;63.85;58.80;;;17.30;99.90;;;;;;5072613;28;20033;-58
2021/05/07 11:50:07;;;;;;;61.22;56.00;;;17.40;99.90;;;;;;5072647;28;20025;-55
2021/05/07 11:52:42;;;;;;;60.13;55.05;;;17.40;99.90;;;;;;5072562;28;20021;-54
2021/05/07 11:55:23;;;;;;;60.60;55.22;;;17.40;99.90;;;;;;5072587;28;20032;-58
2021/05/07 11:57:58;;;;;;;;;;;17.40;99.90;;;;;;5072962;28;20090;-56
2021/05/07 12:00:26;;;;;;;62.47;57.13;;;17.30;99.90;;;;;;5072396;28;19948;-56
2021/05/07 12:03:08;;;;;;;62.10;56.53;;;17.30;99.90;;;;;;5074876;28;20103;-55
2021/05/07 12:05:41;;;;;;;63.88;58.97;;;17.30;99.90;;;;;;5076471;28;20445;-56
2021/05/07 12:08:09;;;;;;;66.10;61.00;;;17.30;99.90;;;;;;5076518;28;20099;-59
2021/05/07 12:10:39;;;;;;;65.30;59.75;;;17.30;99.90;;;;;;5076279;28;20448;-58
2021/05/07 12:13:07;;;;;;;69.63;64.57;;;17.30;99.90;;;;;;5076413;28;20024;-58
2021/05/07 12:15:45;;;;;;;60.80;56.22;;;17.40;99.90;;;;;;5076286;28;20032;-57
2021/05/07 12:18:19;;;;;;;66.13;60.38;;;17.40;99.90;;;;;;5076260;28;20094;-58
2021/05/07 12:20:49;;;;;;;66.65;61.83;;;17.40;99.90;;;;;;5076158;28;20107;-53
2021/05/07 12:23:17;;;;;;;66.75;61.47;;;17.30;99.90;;;;;;5076163;28;20078;-58
2021/05/07 12:25:46;;;;;;;64.45;59.50;;;17.30;99.90;;;;;;5074769;28;20048;-56
2021/05/07 12:28:18;;;;;;;64.43;59.67;;;17.30;99.90;;;;;;5076112;28;20408;-53
2021/05/07 12:30:47;;;;;;;65.20;60.05;;;17.20;99.90;;;;;;5076090;28;20025;-56
2021/05/07 12:33:18;;;;;;;64.75;59.95;;;17.20;99.90;;;;;;5075917;28;20055;-59
2021/05/07 12:35:52;;;;;;;64.60;59.45;;;17.10;99.90;;;;;;5075862;28;20031;-54
2021/05/07 12:38:27;;;;;;;67.55;62.42;;;17.00;99.90;;;;;;5075726;28;20370;-57
2021/05/07 12:40:59;;;;;;;65.68;60.13;;;17.00;99.90;;;;;;5075691;28;20037;-59
2021/05/07 12:43:28;;;;;;;66.75;61.30;;;17.10;99.90;;;;;;5075757;28;20029;-54
2021/05/07 12:45:56;;;;;;;62.95;57.78;;;17.10;99.90;;;;;;5075728;28;20021;-56
2021/05/07 12:48:23;;;;;;;63.05;57.75;;;17.00;99.90;;;;;;5075567;28;20103;-59